sensor_id;sensor_type;location;lat;lon;timestamp;P1;P2;P0
61804;PMS7003;47725;47.912;7.356;2023-05-07T00:02:02;1.85;1.85;
61804;PMS7003;47725;47.912;7.356;2023-05-07T00:06:02;1.85;1.85;
61804;PMS7003;47725;47.912;7.356;2023-05-07T00:10:02;1.85;1.85;
61804;PMS7003;47725;47.912;7.356;2023-05-07T00:14:02;2.76;2.76;
61804;PMS7003;47725;47.912;7.356;2023-05-07T00:18:02;2.76;2.76;
61804;PMS7003;47725;47.912;7.356;2023-05-07T00:22:02;3.68;2.76;
61804;PMS7003;47725;47.912;7.356;2023-05-07T00:26:02;3.68;2.76;
61804;PMS7003;47725;47.912;7.356;2023-05-07T00:30:02;3.68;2.76;
61804;PMS7003;47725;47.912;7.356;2023-05-07T00:34:02;2.74;2.74;
61804;PMS7003;47725;47.912;7.356;2023-05-07T00:38:02;2.74;2.74;
61804;PMS7003;47725;47.912;7.356;2023-05-07T00:42:02;5.46;3.64;
61804;PMS7003;47725;47.912;7.356;2023-05-07T00:46:02;5.46;3.64;
61804;PMS7003;47725;47.912;7.356;2023-05-07T00:50:02;5.46;3.64;
61804;PMS7003;47725;47.912;7.356;2023-05-07T00:54:02;5.45;3.64;
61804;PMS7003;47725;47.912;7.356;2023-05-07T00:58:02;5.45;3.64;
61804;PMS7003;47725;47.912;7.356;2023-05-07T01:02:02;3.62;3.62;
61804;PMS7003;47725;47.912;7.356;2023-05-07T01:06:02;3.62;3.62;
61804;PMS7003;47725;47.912;7.356;2023-05-07T01:10:02;3.62;3.62;
61804;PMS7003;47725;47.912;7.356;2023-05-07T01:14:02;7.22;4.52;
61804;PMS7003;47725;47.912;7.356;2023-05-07T01:18:02;7.22;4.52;
61804;PMS7003;47725;47.912;7.356;2023-05-07T01:22:04;5.39;3.60;
61804;PMS7003;47725;47.912;7.356;2023-05-07T01:26:02;5.39;3.60;
61804;PMS7003;47725;47.912;7.356;2023-05-07T01:30:03;5.39;3.60;
61804;PMS7003;47725;47.912;7.356;2023-05-07T01:34:02;4.48;4.48;
61804;PMS7003;47725;47.912;7.356;2023-05-07T01:38:02;4.48;4.48;
61804;PMS7003;47725;47.912;7.356;2023-05-07T01:42:02;2.69;2.69;
61804;PMS7003;47725;47.912;7.356;2023-05-07T01:46:02;2.69;2.69;
61804;PMS7003;47725;47.912;7.356;2023-05-07T01:50:02;2.69;2.69;
61804;PMS7003;47725;47.912;7.356;2023-05-07T01:54:02;2.69;2.69;
61804;PMS7003;47725;47.912;7.356;2023-05-07T01:58:02;2.69;2.69;
61804;PMS7003;47725;47.912;7.356;2023-05-07T02:02:02;3.58;3.58;
61804;PMS7003;47725;47.912;7.356;2023-05-07T02:06:02;3.58;3.58;
61804;PMS7003;47725;47.912;7.356;2023-05-07T02:10:02;3.58;3.58;
61804;PMS7003;47725;47.912;7.356;2023-05-07T02:14:02;3.56;2.67;
61804;PMS7003;47725;47.912;7.356;2023-05-07T02:18:06;3.56;2.67;
61804;PMS7003;47725;47.912;7.356;2023-05-07T02:22:02;2.67;1.78;
61804;PMS7003;47725;47.912;7.356;2023-05-07T02:26:03;2.67;1.78;
61804;PMS7003;47725;47.912;7.356;2023-05-07T02:30:02;2.67;1.78;
61804;PMS7003;47725;47.912;7.356;2023-05-07T02:34:02;2.65;2.65;
61804;PMS7003;47725;47.912;7.356;2023-05-07T02:38:02;2.65;2.65;
61804;PMS7003;47725;47.912;7.356;2023-05-07T02:42:02;5.29;3.52;
61804;PMS7003;47725;47.912;7.356;2023-05-07T02:46:02;5.29;3.52;
61804;PMS7003;47725;47.912;7.356;2023-05-07T02:50:02;5.29;3.52;
61804;PMS7003;47725;47.912;7.356;2023-05-07T02:54:02;6.13;4.38;
61804;PMS7003;47725;47.912;7.356;2023-05-07T02:58:02;6.13;4.38;
61804;PMS7003;47725;47.912;7.356;2023-05-07T03:02:02;3.49;3.49;
61804;PMS7003;47725;47.912;7.356;2023-05-07T03:06:02;3.49;3.49;
61804;PMS7003;47725;47.912;7.356;2023-05-07T03:10:02;3.49;3.49;
61804;PMS7003;47725;47.912;7.356;2023-05-07T03:14:02;5.24;4.37;
61804;PMS7003;47725;47.912;7.356;2023-05-07T03:18:02;5.24;4.37;
61804;PMS7003;47725;47.912;7.356;2023-05-07T03:22:02;2.64;2.64;
61804;PMS7003;47725;47.912;7.356;2023-05-07T03:26:02;2.64;2.64;
61804;PMS7003;47725;47.912;7.356;2023-05-07T03:30:02;2.64;2.64;
61804;PMS7003;47725;47.912;7.356;2023-05-07T03:34:02;2.63;2.63;
61804;PMS7003;47725;47.912;7.356;2023-05-07T03:38:02;2.63;2.63;
61804;PMS7003;47725;47.912;7.356;2023-05-07T03:42:02;3.50;3.50;
61804;PMS7003;47725;47.912;7.356;2023-05-07T03:46:02;3.50;3.50;
61804;PMS7003;47725;47.912;7.356;2023-05-07T03:50:02;3.50;3.50;
61804;PMS7003;47725;47.912;7.356;2023-05-07T03:54:02;4.37;3.49;
61804;PMS7003;47725;47.912;7.356;2023-05-07T03:58:02;4.37;3.49;
61804;PMS7003;47725;47.912;7.356;2023-05-07T04:02:02;2.62;2.62;
61804;PMS7003;47725;47.912;7.356;2023-05-07T04:06:02;2.62;2.62;
61804;PMS7003;47725;47.912;7.356;2023-05-07T04:10:02;2.62;2.62;
61804;PMS7003;47725;47.912;7.356;2023-05-07T04:14:02;3.47;3.47;
61804;PMS7003;47725;47.912;7.356;2023-05-07T04:18:02;3.47;3.47;
61804;PMS7003;47725;47.912;7.356;2023-05-07T04:22:02;3.48;2.61;
61804;PMS7003;47725;47.912;7.356;2023-05-07T04:26:02;3.48;2.61;
61804;PMS7003;47725;47.912;7.356;2023-05-07T04:30:02;3.48;2.61;
61804;PMS7003;47725;47.912;7.356;2023-05-07T04:34:02;1.74;1.74;
61804;PMS7003;47725;47.912;7.356;2023-05-07T04:38:02;1.74;1.74;
61804;PMS7003;47725;47.912;7.356;2023-05-07T04:42:02;2.60;2.60;
61804;PMS7003;47725;47.912;7.356;2023-05-07T04:46:02;2.60;2.60;
61804;PMS7003;47725;47.912;7.356;2023-05-07T04:50:02;2.60;2.60;
61804;PMS7003;47725;47.912;7.356;2023-05-07T04:54:02;4.34;4.34;
61804;PMS7003;47725;47.912;7.356;2023-05-07T04:58:02;4.34;4.34;
61804;PMS7003;47725;47.912;7.356;2023-05-07T05:02:02;4.33;4.33;
61804;PMS7003;47725;47.912;7.356;2023-05-07T05:06:02;4.33;4.33;
61804;PMS7003;47725;47.912;7.356;2023-05-07T05:10:02;4.33;4.33;
61804;PMS7003;47725;47.912;7.356;2023-05-07T05:14:02;3.45;3.45;
61804;PMS7003;47725;47.912;7.356;2023-05-07T05:18:02;3.45;3.45;
61804;PMS7003;47725;47.912;7.356;2023-05-07T05:22:02;4.35;4.35;
61804;PMS7003;47725;47.912;7.356;2023-05-07T05:26:02;4.35;4.35;
61804;PMS7003;47725;47.912;7.356;2023-05-07T05:30:02;4.35;4.35;
61804;PMS7003;47725;47.912;7.356;2023-05-07T05:34:02;1.75;1.75;
61804;PMS7003;47725;47.912;7.356;2023-05-07T05:38:02;1.75;1.75;
61804;PMS7003;47725;47.912;7.356;2023-05-07T05:42:02;2.61;2.61;
61804;PMS7003;47725;47.912;7.356;2023-05-07T05:46:02;2.61;2.61;
61804;PMS7003;47725;47.912;7.356;2023-05-07T05:50:02;2.61;2.61;
61804;PMS7003;47725;47.912;7.356;2023-05-07T05:54:02;4.38;3.51;
61804;PMS7003;47725;47.912;7.356;2023-05-07T05:58:02;4.38;3.51;
61804;PMS7003;47725;47.912;7.356;2023-05-07T06:02:02;2.64;2.64;
61804;PMS7003;47725;47.912;7.356;2023-05-07T06:06:02;2.64;2.64;
61804;PMS7003;47725;47.912;7.356;2023-05-07T06:10:02;2.64;2.64;
61804;PMS7003;47725;47.912;7.356;2023-05-07T06:14:01;5.32;3.55;
61804;PMS7003;47725;47.912;7.356;2023-05-07T06:18:01;5.32;3.55;
61804;PMS7003;47725;47.912;7.356;2023-05-07T06:22:01;5.36;5.36;
61804;PMS7003;47725;47.912;7.356;2023-05-07T06:26:02;5.36;5.36;
61804;PMS7003;47725;47.912;7.356;2023-05-07T06:30:02;5.36;5.36;
61804;PMS7003;47725;47.912;7.356;2023-05-07T06:34:01;7.33;6.41;
61804;PMS7003;47725;47.912;7.356;2023-05-07T06:38:01;7.33;6.41;
61804;PMS7003;47725;47.912;7.356;2023-05-07T06:42:01;8.20;5.47;
61804;PMS7003;47725;47.912;7.356;2023-05-07T06:46:01;8.20;5.47;
61804;PMS7003;47725;47.912;7.356;2023-05-07T06:50:01;8.20;5.47;
61804;PMS7003;47725;47.912;7.356;2023-05-07T06:54:01;6.34;6.34;
61804;PMS7003;47725;47.912;7.356;2023-05-07T06:58:01;6.34;6.34;
61804;PMS7003;47725;47.912;7.356;2023-05-07T07:02:01;6.32;6.32;
61804;PMS7003;47725;47.912;7.356;2023-05-07T07:06:02;6.32;6.32;
61804;PMS7003;47725;47.912;7.356;2023-05-07T07:10:01;6.32;6.32;
61804;PMS7003;47725;47.912;7.356;2023-05-07T07:14:01;6.31;5.41;
61804;PMS7003;47725;47.912;7.356;2023-05-07T07:18:02;6.31;5.41;
61804;PMS7003;47725;47.912;7.356;2023-05-07T07:22:01;6.39;6.39;
61804;PMS7003;47725;47.912;7.356;2023-05-07T07:26:01;6.39;6.39;
61804;PMS7003;47725;47.912;7.356;2023-05-07T07:30:02;6.39;6.39;
61804;PMS7003;47725;47.912;7.356;2023-05-07T07:34:01;6.42;5.51;
61804;PMS7003;47725;47.912;7.356;2023-05-07T07:38:01;6.42;5.51;
61804;PMS7003;47725;47.912;7.356;2023-05-07T07:42:01;4.64;4.64;
61804;PMS7003;47725;47.912;7.356;2023-05-07T07:46:02;4.64;4.64;
61804;PMS7003;47725;47.912;7.356;2023-05-07T07:50:01;4.64;4.64;
61804;PMS7003;47725;47.912;7.356;2023-05-07T07:54:02;6.55;5.61;
61804;PMS7003;47725;47.912;7.356;2023-05-07T07:58:01;6.55;5.61;
61804;PMS7003;47725;47.912;7.356;2023-05-07T08:02:01;3.77;2.83;
61804;PMS7003;47725;47.912;7.356;2023-05-07T08:06:02;3.77;2.83;
61804;PMS7003;47725;47.912;7.356;2023-05-07T08:10:02;3.77;2.83;
61804;PMS7003;47725;47.912;7.356;2023-05-07T08:14:01;2.85;2.85;
61804;PMS7003;47725;47.912;7.356;2023-05-07T08:18:01;2.85;2.85;
61804;PMS7003;47725;47.912;7.356;2023-05-07T08:22:02;7.65;4.78;
61804;PMS7003;47725;47.912;7.356;2023-05-07T08:26:01;7.65;4.78;
61804;PMS7003;47725;47.912;7.356;2023-05-07T08:30:02;7.65;4.78;
61804;PMS7003;47725;47.912;7.356;2023-05-07T08:34:02;3.83;2.87;
61804;PMS7003;47725;47.912;7.356;2023-05-07T08:38:01;3.83;2.87;
61804;PMS7003;47725;47.912;7.356;2023-05-07T08:42:02;6.76;1.93;
61804;PMS7003;47725;47.912;7.356;2023-05-07T08:46:01;6.76;1.93;
61804;PMS7003;47725;47.912;7.356;2023-05-07T08:50:01;6.76;1.93;
61804;PMS7003;47725;47.912;7.356;2023-05-07T08:54:01;1.91;1.91;
61804;PMS7003;47725;47.912;7.356;2023-05-07T08:58:01;1.91;1.91;
61804;PMS7003;47725;47.912;7.356;2023-05-07T09:02:01;4.82;2.89;
61804;PMS7003;47725;47.912;7.356;2023-05-07T09:06:01;4.82;2.89;
61804;PMS7003;47725;47.912;7.356;2023-05-07T09:10:02;4.82;2.89;
61804;PMS7003;47725;47.912;7.356;2023-05-07T09:14:01;2.89;2.89;
61804;PMS7003;47725;47.912;7.356;2023-05-07T09:18:02;2.89;2.89;
61804;PMS7003;47725;47.912;7.356;2023-05-07T09:22:02;5.74;3.83;
61804;PMS7003;47725;47.912;7.356;2023-05-07T09:26:01;5.74;3.83;
61804;PMS7003;47725;47.912;7.356;2023-05-07T09:30:05;5.74;3.83;
61804;PMS7003;47725;47.912;7.356;2023-05-07T09:34:01;2.87;2.87;
61804;PMS7003;47725;47.912;7.356;2023-05-07T09:38:01;2.87;2.87;
61804;PMS7003;47725;47.912;7.356;2023-05-07T09:42:01;3.80;2.85;
61804;PMS7003;47725;47.912;7.356;2023-05-07T09:46:11;3.80;2.85;
61804;PMS7003;47725;47.912;7.356;2023-05-07T09:50:01;3.80;2.85;
61804;PMS7003;47725;47.912;7.356;2023-05-07T09:54:01;3.78;2.84;
61804;PMS7003;47725;47.912;7.356;2023-05-07T09:58:01;3.78;2.84;
61804;PMS7003;47725;47.912;7.356;2023-05-07T10:02:01;1.89;1.89;
61804;PMS7003;47725;47.912;7.356;2023-05-07T10:06:01;1.89;1.89;
61804;PMS7003;47725;47.912;7.356;2023-05-07T10:10:01;1.89;1.89;
61804;PMS7003;47725;47.912;7.356;2023-05-07T10:14:02;0.94;0.94;
61804;PMS7003;47725;47.912;7.356;2023-05-07T10:18:01;0.94;0.94;
61804;PMS7003;47725;47.912;7.356;2023-05-07T10:22:05;2.79;2.79;
61804;PMS7003;47725;47.912;7.356;2023-05-07T10:26:02;2.79;2.79;
61804;PMS7003;47725;47.912;7.356;2023-05-07T10:30:12;2.79;2.79;
61804;PMS7003;47725;47.912;7.356;2023-05-07T10:34:01;2.77;2.77;
61804;PMS7003;47725;47.912;7.356;2023-05-07T10:38:01;2.77;2.77;
61804;PMS7003;47725;47.912;7.356;2023-05-07T10:42:10;2.76;1.84;
61804;PMS7003;47725;47.912;7.356;2023-05-07T10:46:11;2.76;1.84;
61804;PMS7003;47725;47.912;7.356;2023-05-07T11:02:04;1.80;1.80;
61804;PMS7003;47725;47.912;7.356;2023-05-07T11:06:13;1.80;1.80;
61804;PMS7003;47725;47.912;7.356;2023-05-07T11:10:01;1.80;1.80;
61804;PMS7003;47725;47.912;7.356;2023-05-07T11:14:01;8.06;7.16;
61804;PMS7003;47725;47.912;7.356;2023-05-07T11:18:01;8.06;7.16;
61804;PMS7003;47725;47.912;7.356;2023-05-07T11:22:01;24.85;21.30;
61804;PMS7003;47725;47.912;7.356;2023-05-07T11:26:04;24.85;21.30;
61804;PMS7003;47725;47.912;7.356;2023-05-07T11:30:01;24.85;21.30;
61804;PMS7003;47725;47.912;7.356;2023-05-07T11:34:01;2.66;2.66;
61804;PMS7003;47725;47.912;7.356;2023-05-07T11:38:01;2.66;2.66;
61804;PMS7003;47725;47.912;7.356;2023-05-07T11:42:01;2.64;1.76;
61804;PMS7003;47725;47.912;7.356;2023-05-07T11:46:10;2.64;1.76;
61804;PMS7003;47725;47.912;7.356;2023-05-07T11:50:05;2.64;1.76;
61804;PMS7003;47725;47.912;7.356;2023-05-07T11:54:03;1.78;1.78;
61804;PMS7003;47725;47.912;7.356;2023-05-07T11:58:01;1.78;1.78;
61804;PMS7003;47725;47.912;7.356;2023-05-07T12:02:01;1.79;1.79;
61804;PMS7003;47725;47.912;7.356;2023-05-07T12:06:01;1.79;1.79;
61804;PMS7003;47725;47.912;7.356;2023-05-07T12:10:05;1.79;1.79;
61804;PMS7003;47725;47.912;7.356;2023-05-07T12:14:01;1.80;1.80;
61804;PMS7003;47725;47.912;7.356;2023-05-07T12:18:01;1.80;1.80;
61804;PMS7003;47725;47.912;7.356;2023-05-07T12:22:03;1.79;0.90;
61804;PMS7003;47725;47.912;7.356;2023-05-07T12:26:01;1.79;0.90;
61804;PMS7003;47725;47.912;7.356;2023-05-07T12:30:01;1.79;0.90;
61804;PMS7003;47725;47.912;7.356;2023-05-07T12:34:01;0.89;0.89;
61804;PMS7003;47725;47.912;7.356;2023-05-07T12:38:01;0.89;0.89;
61804;PMS7003;47725;47.912;7.356;2023-05-07T12:42:01;0.89;0.89;
61804;PMS7003;47725;47.912;7.356;2023-05-07T12:46:05;0.89;0.89;
61804;PMS7003;47725;47.912;7.356;2023-05-07T12:50:01;0.89;0.89;
61804;PMS7003;47725;47.912;7.356;2023-05-07T12:54:01;3.58;1.79;
61804;PMS7003;47725;47.912;7.356;2023-05-07T12:58:01;3.58;1.79;
61804;PMS7003;47725;47.912;7.356;2023-05-07T13:02:01;3.63;0.91;
61804;PMS7003;47725;47.912;7.356;2023-05-07T13:06:05;3.63;0.91;
61804;PMS7003;47725;47.912;7.356;2023-05-07T13:10:01;3.63;0.91;
61804;PMS7003;47725;47.912;7.356;2023-05-07T13:14:01;0.91;0.91;
61804;PMS7003;47725;47.912;7.356;2023-05-07T13:18:01;0.91;0.91;
61804;PMS7003;47725;47.912;7.356;2023-05-07T13:22:01;1.80;1.80;
61804;PMS7003;47725;47.912;7.356;2023-05-07T13:26:01;1.80;1.80;
61804;PMS7003;47725;47.912;7.356;2023-05-07T13:30:01;1.80;1.80;
61804;PMS7003;47725;47.912;7.356;2023-05-07T13:34:01;1.81;0.90;
61804;PMS7003;47725;47.912;7.356;2023-05-07T13:38:01;1.81;0.90;
61804;PMS7003;47725;47.912;7.356;2023-05-07T13:42:01;3.63;1.81;
61804;PMS7003;47725;47.912;7.356;2023-05-07T13:46:01;3.63;1.81;
61804;PMS7003;47725;47.912;7.356;2023-05-07T13:50:01;3.63;1.81;
61804;PMS7003;47725;47.912;7.356;2023-05-07T13:54:01;0.91;0.91;
61804;PMS7003;47725;47.912;7.356;2023-05-07T13:58:01;0.91;0.91;
61804;PMS7003;47725;47.912;7.356;2023-05-07T14:02:01;3.67;0.92;
61804;PMS7003;47725;47.912;7.356;2023-05-07T14:06:01;3.67;0.92;
61804;PMS7003;47725;47.912;7.356;2023-05-07T14:10:01;3.67;0.92;
61804;PMS7003;47725;47.912;7.356;2023-05-07T14:14:01;1.85;1.85;
61804;PMS7003;47725;47.912;7.356;2023-05-07T14:18:01;1.85;1.85;
61804;PMS7003;47725;47.912;7.356;2023-05-07T14:22:01;0.93;0.93;
61804;PMS7003;47725;47.912;7.356;2023-05-07T14:26:01;0.93;0.93;
61804;PMS7003;47725;47.912;7.356;2023-05-07T14:30:01;0.93;0.93;
61804;PMS7003;47725;47.912;7.356;2023-05-07T14:34:01;0.94;0.94;
61804;PMS7003;47725;47.912;7.356;2023-05-07T14:38:01;0.94;0.94;
61804;PMS7003;47725;47.912;7.356;2023-05-07T14:42:01;0.00;0.00;
61804;PMS7003;47725;47.912;7.356;2023-05-07T14:46:01;0.00;0.00;
61804;PMS7003;47725;47.912;7.356;2023-05-07T14:50:01;0.00;0.00;
61804;PMS7003;47725;47.912;7.356;2023-05-07T14:54:01;0.00;0.00;
61804;PMS7003;47725;47.912;7.356;2023-05-07T14:58:01;0.00;0.00;
61804;PMS7003;47725;47.912;7.356;2023-05-07T15:02:01;0.00;0.00;
61804;PMS7003;47725;47.912;7.356;2023-05-07T15:06:01;0.00;0.00;
61804;PMS7003;47725;47.912;7.356;2023-05-07T15:10:01;0.00;0.00;
61804;PMS7003;47725;47.912;7.356;2023-05-07T15:14:01;0.94;0.94;
61804;PMS7003;47725;47.912;7.356;2023-05-07T15:18:01;0.94;0.94;
61804;PMS7003;47725;47.912;7.356;2023-05-07T15:22:01;0.00;0.00;
61804;PMS7003;47725;47.912;7.356;2023-05-07T15:26:01;0.00;0.00;
61804;PMS7003;47725;47.912;7.356;2023-05-07T15:30:01;0.00;0.00;
61804;PMS7003;47725;47.912;7.356;2023-05-07T15:34:01;0.00;0.00;
61804;PMS7003;47725;47.912;7.356;2023-05-07T15:38:01;0.00;0.00;
61804;PMS7003;47725;47.912;7.356;2023-05-07T15:42:01;0.92;0.00;
61804;PMS7003;47725;47.912;7.356;2023-05-07T15:46:01;0.92;0.00;
61804;PMS7003;47725;47.912;7.356;2023-05-07T15:50:01;0.92;0.00;
61804;PMS7003;47725;47.912;7.356;2023-05-07T15:54:01;0.92;0.92;
61804;PMS7003;47725;47.912;7.356;2023-05-07T15:58:01;0.92;0.92;
61804;PMS7003;47725;47.912;7.356;2023-05-07T16:02:01;0.92;0.00;
61804;PMS7003;47725;47.912;7.356;2023-05-07T16:06:01;0.92;0.00;
61804;PMS7003;47725;47.912;7.356;2023-05-07T16:10:01;0.92;0.00;
61804;PMS7003;47725;47.912;7.356;2023-05-07T16:14:01;0.00;0.00;
61804;PMS7003;47725;47.912;7.356;2023-05-07T16:18:04;0.00;0.00;
61804;PMS7003;47725;47.912;7.356;2023-05-07T16:22:01;0.00;0.00;
61804;PMS7003;47725;47.912;7.356;2023-05-07T16:26:01;0.00;0.00;
61804;PMS7003;47725;47.912;7.356;2023-05-07T16:30:01;0.00;0.00;
61804;PMS7003;47725;47.912;7.356;2023-05-07T16:34:01;0.00;0.00;
61804;PMS7003;47725;47.912;7.356;2023-05-07T16:38:01;0.00;0.00;
61804;PMS7003;47725;47.912;7.356;2023-05-07T16:42:04;1.84;0.00;
61804;PMS7003;47725;47.912;7.356;2023-05-07T16:46:01;1.84;0.00;
61804;PMS7003;47725;47.912;7.356;2023-05-07T16:50:01;1.84;0.00;
61804;PMS7003;47725;47.912;7.356;2023-05-07T16:54:01;0.92;0.00;
61804;PMS7003;47725;47.912;7.356;2023-05-07T16:58:01;0.92;0.00;
61804;PMS7003;47725;47.912;7.356;2023-05-07T17:02:01;0.92;0.92;
61804;PMS7003;47725;47.912;7.356;2023-05-07T17:06:01;0.92;0.92;
61804;PMS7003;47725;47.912;7.356;2023-05-07T17:10:01;0.92;0.92;
61804;PMS7003;47725;47.912;7.356;2023-05-07T17:14:01;0.00;0.00;
61804;PMS7003;47725;47.912;7.356;2023-05-07T17:18:01;0.00;0.00;
61804;PMS7003;47725;47.912;7.356;2023-05-07T17:22:01;1.83;1.83;
61804;PMS7003;47725;47.912;7.356;2023-05-07T17:26:01;1.83;1.83;
61804;PMS7003;47725;47.912;7.356;2023-05-07T17:30:01;1.83;1.83;
61804;PMS7003;47725;47.912;7.356;2023-05-07T17:34:01;0.00;0.00;
61804;PMS7003;47725;47.912;7.356;2023-05-07T17:38:01;0.00;0.00;
61804;PMS7003;47725;47.912;7.356;2023-05-07T17:42:01;1.81;0.00;
61804;PMS7003;47725;47.912;7.356;2023-05-07T17:46:01;1.81;0.00;
61804;PMS7003;47725;47.912;7.356;2023-05-07T17:50:01;1.81;0.00;
61804;PMS7003;47725;47.912;7.356;2023-05-07T17:54:01;1.81;0.00;
61804;PMS7003;47725;47.912;7.356;2023-05-07T17:58:01;1.81;0.00;
61804;PMS7003;47725;47.912;7.356;2023-05-07T18:02:01;0.00;0.00;
61804;PMS7003;47725;47.912;7.356;2023-05-07T18:06:01;0.00;0.00;
61804;PMS7003;47725;47.912;7.356;2023-05-07T18:10:01;0.00;0.00;
61804;PMS7003;47725;47.912;7.356;2023-05-07T18:14:00;0.00;0.00;
61804;PMS7003;47725;47.912;7.356;2023-05-07T18:18:00;0.00;0.00;
61804;PMS7003;47725;47.912;7.356;2023-05-07T18:22:01;0.00;0.00;
61804;PMS7003;47725;47.912;7.356;2023-05-07T18:26:01;0.00;0.00;
61804;PMS7003;47725;47.912;7.356;2023-05-07T18:30:01;0.00;0.00;
61804;PMS7003;47725;47.912;7.356;2023-05-07T18:34:00;0.00;0.00;
61804;PMS7003;47725;47.912;7.356;2023-05-07T18:38:00;0.00;0.00;
61804;PMS7003;47725;47.912;7.356;2023-05-07T18:42:00;0.00;0.00;
61804;PMS7003;47725;47.912;7.356;2023-05-07T18:46:00;0.00;0.00;
61804;PMS7003;47725;47.912;7.356;2023-05-07T18:50:00;0.00;0.00;
61804;PMS7003;47725;47.912;7.356;2023-05-07T18:54:00;0.00;0.00;
61804;PMS7003;47725;47.912;7.356;2023-05-07T18:58:00;0.00;0.00;
61804;PMS7003;47725;47.912;7.356;2023-05-07T19:02:00;0.00;0.00;
61804;PMS7003;47725;47.912;7.356;2023-05-07T19:06:01;0.00;0.00;
61804;PMS7003;47725;47.912;7.356;2023-05-07T19:10:00;0.00;0.00;
61804;PMS7003;47725;47.912;7.356;2023-05-07T19:14:00;0.00;0.00;
61804;PMS7003;47725;47.912;7.356;2023-05-07T19:18:00;0.00;0.00;
61804;PMS7003;47725;47.912;7.356;2023-05-07T19:22:00;0.00;0.00;
61804;PMS7003;47725;47.912;7.356;2023-05-07T19:26:01;0.00;0.00;
61804;PMS7003;47725;47.912;7.356;2023-05-07T19:30:00;0.00;0.00;
61804;PMS7003;47725;47.912;7.356;2023-05-07T19:34:00;0.00;0.00;
61804;PMS7003;47725;47.912;7.356;2023-05-07T19:38:00;0.00;0.00;
61804;PMS7003;47725;47.912;7.356;2023-05-07T19:42:00;0.00;0.00;
61804;PMS7003;47725;47.912;7.356;2023-05-07T19:46:01;0.00;0.00;
61804;PMS7003;47725;47.912;7.356;2023-05-07T19:50:00;0.00;0.00;
61804;PMS7003;47725;47.912;7.356;2023-05-07T19:54:01;0.86;0.86;
61804;PMS7003;47725;47.912;7.356;2023-05-07T19:58:00;0.86;0.86;
61804;PMS7003;47725;47.912;7.356;2023-05-07T20:02:00;0.00;0.00;
61804;PMS7003;47725;47.912;7.356;2023-05-07T20:06:00;0.00;0.00;
61804;PMS7003;47725;47.912;7.356;2023-05-07T20:10:00;0.00;0.00;
61804;PMS7003;47725;47.912;7.356;2023-05-07T20:14:00;0.00;0.00;
61804;PMS7003;47725;47.912;7.356;2023-05-07T20:18:00;0.00;0.00;
61804;PMS7003;47725;47.912;7.356;2023-05-07T20:22:00;0.85;0.85;
61804;PMS7003;47725;47.912;7.356;2023-05-07T20:26:00;0.85;0.85;
61804;PMS7003;47725;47.912;7.356;2023-05-07T20:30:00;0.85;0.85;
61804;PMS7003;47725;47.912;7.356;2023-05-07T20:34:00;0.85;0.85;
61804;PMS7003;47725;47.912;7.356;2023-05-07T20:38:00;0.85;0.85;
61804;PMS7003;47725;47.912;7.356;2023-05-07T20:42:00;0.85;0.85;
61804;PMS7003;47725;47.912;7.356;2023-05-07T20:46:00;0.85;0.85;
61804;PMS7003;47725;47.912;7.356;2023-05-07T20:50:00;0.85;0.85;
61804;PMS7003;47725;47.912;7.356;2023-05-07T20:54:00;0.00;0.00;
61804;PMS7003;47725;47.912;7.356;2023-05-07T20:58:00;0.00;0.00;
61804;PMS7003;47725;47.912;7.356;2023-05-07T21:02:01;0.85;0.85;
61804;PMS7003;47725;47.912;7.356;2023-05-07T21:06:00;0.85;0.85;
61804;PMS7003;47725;47.912;7.356;2023-05-07T21:10:00;0.85;0.85;
61804;PMS7003;47725;47.912;7.356;2023-05-07T21:14:00;0.00;0.00;
61804;PMS7003;47725;47.912;7.356;2023-05-07T21:18:00;0.00;0.00;
61804;PMS7003;47725;47.912;7.356;2023-05-07T21:22:01;0.84;0.84;
61804;PMS7003;47725;47.912;7.356;2023-05-07T21:26:00;0.84;0.84;
61804;PMS7003;47725;47.912;7.356;2023-05-07T21:30:00;0.84;0.84;
61804;PMS7003;47725;47.912;7.356;2023-05-07T21:34:00;0.83;0.83;
61804;PMS7003;47725;47.912;7.356;2023-05-07T21:38:00;0.83;0.83;
61804;PMS7003;47725;47.912;7.356;2023-05-07T21:42:00;0.00;0.00;
61804;PMS7003;47725;47.912;7.356;2023-05-07T21:46:00;0.00;0.00;
61804;PMS7003;47725;47.912;7.356;2023-05-07T21:50:00;0.00;0.00;
61804;PMS7003;47725;47.912;7.356;2023-05-07T21:54:00;0.83;0.83;
61804;PMS7003;47725;47.912;7.356;2023-05-07T21:58:00;0.83;0.83;
61804;PMS7003;47725;47.912;7.356;2023-05-07T22:02:00;0.84;0.84;
61804;PMS7003;47725;47.912;7.356;2023-05-07T22:06:00;0.84;0.84;
61804;PMS7003;47725;47.912;7.356;2023-05-07T22:10:01;0.84;0.84;
61804;PMS7003;47725;47.912;7.356;2023-05-07T22:14:00;0.83;0.83;
61804;PMS7003;47725;47.912;7.356;2023-05-07T22:18:00;0.83;0.83;
61804;PMS7003;47725;47.912;7.356;2023-05-07T22:22:00;0.83;0.00;
61804;PMS7003;47725;47.912;7.356;2023-05-07T22:26:00;0.83;0.00;
61804;PMS7003;47725;47.912;7.356;2023-05-07T22:30:00;0.83;0.00;
61804;PMS7003;47725;47.912;7.356;2023-05-07T22:34:00;0.00;0.00;
61804;PMS7003;47725;47.912;7.356;2023-05-07T22:38:00;0.00;0.00;
61804;PMS7003;47725;47.912;7.356;2023-05-07T22:42:00;0.83;0.83;
61804;PMS7003;47725;47.912;7.356;2023-05-07T22:46:00;0.83;0.83;
61804;PMS7003;47725;47.912;7.356;2023-05-07T22:50:00;0.83;0.83;
61804;PMS7003;47725;47.912;7.356;2023-05-07T22:54:00;1.66;1.66;
61804;PMS7003;47725;47.912;7.356;2023-05-07T22:58:00;1.66;1.66;
61804;PMS7003;47725;47.912;7.356;2023-05-07T23:02:00;0.83;0.83;
61804;PMS7003;47725;47.912;7.356;2023-05-07T23:06:00;0.83;0.83;
61804;PMS7003;47725;47.912;7.356;2023-05-07T23:10:00;0.83;0.83;
61804;PMS7003;47725;47.912;7.356;2023-05-07T23:14:00;1.65;0.83;
61804;PMS7003;47725;47.912;7.356;2023-05-07T23:18:00;1.65;0.83;
61804;PMS7003;47725;47.912;7.356;2023-05-07T23:22:00;3.32;2.49;
61804;PMS7003;47725;47.912;7.356;2023-05-07T23:26:00;3.32;2.49;
61804;PMS7003;47725;47.912;7.356;2023-05-07T23:30:00;3.32;2.49;
61804;PMS7003;47725;47.912;7.356;2023-05-07T23:34:00;2.47;0.82;
61804;PMS7003;47725;47.912;7.356;2023-05-07T23:38:00;2.47;0.82;
61804;PMS7003;47725;47.912;7.356;2023-05-07T23:42:00;3.28;1.64;
61804;PMS7003;47725;47.912;7.356;2023-05-07T23:46:00;3.28;1.64;
61804;PMS7003;47725;47.912;7.356;2023-05-07T23:50:00;3.28;1.64;
61804;PMS7003;47725;47.912;7.356;2023-05-07T23:54:00;2.45;1.64;
61804;PMS7003;47725;47.912;7.356;2023-05-07T23:58:00;2.45;1.64;
